Time;durP1;ratioP1;P1;durP2;ratioP2;P2;SDS_P1;SDS_P2;PMS_P1;PMS_P2;Temp;Humidity;BMP_temperature;BMP_pressure;BME280_temperature;BME280_humidity;BME280_pressure;Samples;Min_cycle;Max_cycle;Signal;HPM_P1;HPM_P2
2022/05/27 00:02:09;;;;;;;3.90;1.40;;;;;;;14.77;70.53;99341.22;4954415;29;20204;-52
2022/05/27 00:04:55;;;;;;;4.93;1.40;;;;;;;14.72;71.29;99335.63;4954712;28;20673;-55
2022/05/27 00:07:21;;;;;;;5.57;1.50;;;;;;;14.69;71.77;99341.16;4954168;29;20213;-52
2022/05/27 00:09:49;;;;;;;3.70;1.47;;;;;;;14.57;72.23;99336.22;4969236;28;20214;-53
2022/05/27 00:12:16;;;;;;;2.30;1.50;;;;;;;14.49;72.46;99324.81;4959479;28;20259;-52
2022/05/27 00:14:43;;;;;;;5.00;1.30;;;;;;;14.45;72.97;99327.78;4968253;28;20192;-53
2022/05/27 00:17:29;;;;;;;4.70;1.53;;;;;;;14.41;73.83;99325.63;4965835;28;20227;-54
2022/05/27 00:19:56;;;;;;;2.83;1.53;;;;;;;14.56;71.97;99320.59;4963726;28;20233;-51
2022/05/27 00:22:22;;;;;;;4.90;1.47;;;;;;;14.45;72.40;99325.16;4973058;28;20198;-52
2022/05/27 00:24:50;;;;;;;4.77;1.50;;;;;;;14.53;72.39;99327.00;4961213;28;20611;-53
2022/05/27 00:27:36;;;;;;;4.13;1.90;;;;;;;14.54;72.77;99325.19;4975265;28;20255;-51
2022/05/27 00:30:04;;;;;;;4.63;1.70;;;;;;;14.60;72.29;99322.75;4960442;28;20209;-51
2022/05/27 00:32:31;;;;;;;3.70;1.63;;;;;;;14.54;72.31;99317.28;4958056;28;20218;-51
2022/05/27 00:34:59;;;;;;;4.83;1.60;;;;;;;14.51;71.97;99317.63;4958679;28;20405;-51
2022/05/27 00:37:25;;;;;;;4.50;1.70;;;;;;;14.52;72.81;99312.22;4965321;28;20212;-51
2022/05/27 00:39:56;;;;;;;4.07;1.73;;;;;;;14.49;73.26;99311.69;4958098;29;20199;-51
2022/05/27 00:42:22;;;;;;;3.07;1.57;;;;;;;14.42;73.47;99312.34;4957975;28;20258;-52
2022/05/27 00:44:49;;;;;;;3.30;1.70;;;;;;;14.43;73.14;99311.34;4973241;28;20198;-51
2022/05/27 00:47:22;;;;;;;3.97;1.70;;;;;;;14.36;73.16;99306.91;4976727;28;20200;-52
2022/05/27 00:49:53;;;;;;;5.37;1.60;;;;;;;14.29;73.41;99298.84;4952797;29;20217;-52
2022/05/27 00:52:22;;;;;;;4.37;1.70;;;;;;;14.28;74.43;99300.63;4956386;29;20203;-53
2022/05/27 00:54:49;;;;;;;2.97;1.70;;;;;;;14.16;74.51;99304.53;4973289;28;20211;-51
2022/05/27 00:57:25;;;;;;;2.67;1.60;;;;;;;14.00;75.97;99307.91;4976266;28;20675;-51
2022/05/27 00:59:58;;;;;;;2.60;1.37;;;;;;;13.84;76.99;99306.00;4961348;28;20176;-52
2022/05/27 01:02:25;;;;;;;5.10;1.80;;;;;;;13.77;77.20;99297.94;4970369;28;20247;-51
2022/05/27 01:04:52;;;;;;;4.23;1.70;;;;;;;13.71;77.39;99294.13;4959415;28;20197;-52
2022/05/27 01:07:19;;;;;;;4.97;1.80;;;;;;;13.71;78.51;99299.38;4976999;28;20547;-52
2022/05/27 01:09:49;;;;;;;5.63;1.87;;;;;;;13.75;77.43;99296.44;4977164;28;20221;-51
2022/05/27 01:12:57;;;;;;;2.20;1.63;;;;;;;13.78;78.71;99294.31;4970058;28;20190;-52
2022/05/27 01:15:35;;;;;;;4.87;1.60;;;;;;;13.84;77.96;99290.25;4882238;29;20236;-51
2022/05/27 01:18:21;;;;;;;2.93;1.73;;;;;;;13.96;76.98;99288.19;4897667;29;20744;-51
2022/05/27 01:20:55;;;;;;;1.77;1.20;;;;;;;14.07;76.84;99289.72;4953249;28;20198;-52
2022/05/27 01:24:02;;;;;;;3.83;1.40;;;;;;;14.05;76.14;99286.41;4959528;28;20282;-52
2022/05/27 01:26:45;;;;;;;5.10;1.50;;;;;;;13.96;75.94;99286.38;4959172;28;20195;-51
2022/05/27 01:29:35;;;;;;;2.27;1.60;;;;;;;13.89;77.22;99295.84;4976074;28;20304;-52
2022/05/27 01:32:12;;;;;;;4.17;1.57;;;;;;;13.80;77.29;99288.91;4976804;28;20562;-51
2022/05/27 01:34:52;;;;;;;5.97;1.73;;;;;;;13.68;78.15;99288.34;4976759;28;20193;-53
2022/05/27 01:37:27;;;;;;;2.90;1.57;;;;;;;13.61;78.47;99290.78;4975740;28;20217;-51
2022/05/27 01:40:03;;;;;;;4.43;1.80;;;;;;;13.48;79.34;99280.69;4976549;28;20513;-53
2022/05/27 01:42:36;;;;;;;2.97;1.30;;;;;;;13.41;80.04;99285.72;4958912;28;20209;-53
2022/05/27 01:45:10;;;;;;;4.60;1.90;;;;;;;13.30;81.15;99275.47;4976640;28;20970;-51
2022/05/27 01:47:43;;;;;;;3.53;1.67;;;;;;;13.25;81.69;99282.94;4976401;28;20253;-51
2022/05/27 01:50:17;;;;;;;2.40;1.83;;;;;;;13.23;81.58;99277.88;4958591;28;20321;-52
2022/05/27 01:53:08;;;;;;;6.70;1.70;;;;;;;13.25;81.15;99285.56;4968272;28;20242;-51
2022/05/27 01:55:41;;;;;;;6.00;1.70;;;;;;;13.32;80.53;99286.63;4976039;28;20207;-54
2022/05/27 01:58:13;;;;;;;4.43;1.50;;;;;;;13.33;81.68;99277.78;4973176;28;20221;-52
2022/05/27 02:00:43;;;;;;;5.07;2.03;;;;;;;13.29;80.99;99272.00;4956128;28;20195;-54
2022/05/27 02:03:18;;;;;;;4.23;1.57;;;;;;;13.28;81.17;99270.34;4966164;28;20256;-53
2022/05/27 02:05:50;;;;;;;3.03;1.43;;;;;;;13.24;82.28;99281.31;4975347;28;20196;-51
2022/05/27 02:08:20;;;;;;;3.27;2.17;;;;;;;13.38;80.88;99282.53;4975801;28;20686;-52
2022/05/27 02:10:52;;;;;;;2.57;1.60;;;;;;;13.44;80.65;99281.97;4976003;28;20209;-51
2022/05/27 02:13:25;;;;;;;4.23;1.83;;;;;;;13.43;80.18;99275.91;4952826;28;20203;-52
2022/05/27 02:15:54;;;;;;;4.20;1.80;;;;;;;13.49;80.62;99278.91;4952471;29;20208;-54
2022/05/27 02:18:26;;;;;;;4.13;1.80;;;;;;;13.52;79.93;99275.97;4939923;29;20309;-53
2022/05/27 02:20:58;;;;;;;3.67;1.93;;;;;;;13.62;80.12;99268.00;4973137;28;20668;-54
2022/05/27 02:23:30;;;;;;;2.53;1.83;;;;;;;13.71;78.64;99270.53;4977637;28;20202;-54
2022/05/27 02:26:00;;;;;;;2.40;1.77;;;;;;;13.66;79.13;99275.41;4975745;28;20190;-51
2022/05/27 02:28:31;;;;;;;5.67;1.97;;;;;;;13.61;79.36;99264.56;4975179;28;20722;-52
2022/05/27 02:31:02;;;;;;;4.17;1.50;;;;;;;13.63;79.07;99264.38;4974720;28;20252;-54
2022/05/27 02:36:26;;;;;;;6.23;2.10;;;;;;;13.44;80.25;99263.59;4974819;28;20190;-52
2022/05/27 02:38:53;;;;;;;3.17;1.90;;;;;;;13.38;80.60;99258.94;4959234;28;20216;-54
2022/05/27 02:41:27;;;;;;;3.03;2.13;;;;;;;13.32;81.68;99257.78;4967187;28;20551;-53
2022/05/27 02:44:14;;;;;;;3.17;1.80;;;;;;;13.33;82.23;99269.91;4976659;28;20205;-55
2022/05/27 02:46:49;;;;;;;4.70;2.13;;;;;;;13.55;80.87;99262.56;4971852;28;20264;-53
2022/05/27 02:49:26;;;;;;;4.53;1.70;;;;;;;13.55;80.51;99263.34;4974271;28;20217;-53
2022/05/27 02:52:06;;;;;;;4.03;2.33;;;;;;;13.69;79.96;99263.78;4975383;28;20203;-52
2022/05/27 02:54:43;;;;;;;3.57;2.17;;;;;;;13.70;79.45;99268.88;4975133;28;20193;-54
2022/05/27 02:57:15;;;;;;;3.93;2.10;;;;;;;13.71;80.03;99256.56;4957016;28;20210;-54
2022/05/27 02:59:42;;;;;;;3.00;1.90;;;;;;;13.72;80.55;99263.47;4960659;28;20190;-53
2022/05/27 03:02:13;;;;;;;3.57;2.47;;;;;;;13.79;80.27;99266.28;4955766;28;20746;-52
2022/05/27 03:04:43;;;;;;;3.23;1.73;;;;;;;13.79;79.99;99259.25;4955544;29;20210;-54
2022/05/27 03:07:23;;;;;;;4.23;1.97;;;;;;;13.89;80.67;99269.59;4973233;28;20201;-54
2022/05/27 03:09:55;;;;;;;3.50;1.90;;;;;;;13.93;80.22;99270.94;4974470;28;20217;-53
2022/05/27 03:12:39;;;;;;;2.83;1.90;;;;;;;13.91;79.60;99261.59;4974689;28;20251;-52
2022/05/27 03:15:26;;;;;;;3.33;2.10;;;;;;;13.86;80.03;99268.13;4959932;28;20212;-52
2022/05/27 03:18:09;;;;;;;2.40;1.80;;;;;;;13.97;79.48;99271.47;4963165;28;20281;-52
2022/05/27 03:20:49;;;;;;;4.90;2.00;;;;;;;14.05;79.28;99278.53;4968646;28;20216;-52
2022/05/27 03:23:31;;;;;;;3.80;2.30;;;;;;;14.13;77.75;99283.84;4972044;28;20202;-53
2022/05/27 03:26:06;;;;;;;6.40;2.20;;;;;;;14.14;77.43;99274.97;4954973;28;20257;-52
2022/05/27 03:28:41;;;;;;;5.93;2.47;;;;;;;14.27;77.44;99280.59;4975033;28;20219;-55
2022/05/27 03:31:14;;;;;;;6.37;2.60;;;;;;;14.28;77.14;99274.38;4975325;28;20220;-53
2022/05/27 03:33:51;;;;;;;4.47;2.03;;;;;;;14.35;76.79;99281.63;4975837;28;20500;-55
2022/05/27 03:36:23;;;;;;;3.67;2.67;;;;;;;14.40;76.86;99276.72;4977041;28;20252;-54
2022/05/27 03:38:59;;;;;;;3.80;2.20;;;;;;;14.45;76.13;99277.88;4975813;28;20214;-52
2022/05/27 03:41:30;;;;;;;4.43;2.37;;;;;;;14.43;75.96;99285.09;4974511;28;20222;-52
2022/05/27 03:43:58;;;;;;;3.73;2.30;;;;;;;14.42;75.76;99291.31;4974799;28;20211;-52
2022/05/27 03:46:31;;;;;;;6.43;1.97;;;;;;;14.44;75.88;99285.91;4952828;29;20666;-52
2022/05/27 03:48:58;;;;;;;6.00;2.00;;;;;;;14.46;76.22;99289.22;4962866;28;20216;-52
2022/05/27 03:51:35;;;;;;;6.93;2.20;;;;;;;14.48;75.93;99289.88;4966992;28;20222;-52
2022/05/27 03:54:04;;;;;;;5.67;2.70;;;;;;;14.53;75.64;99286.75;4966297;28;20193;-54
2022/05/27 03:56:33;;;;;;;3.90;2.37;;;;;;;14.55;76.57;99285.63;4974329;28;20203;-53
2022/05/27 03:59:01;;;;;;;4.63;2.20;;;;;;;14.58;76.21;99297.59;4964935;28;20211;-52
2022/05/27 04:01:48;;;;;;;4.07;2.20;;;;;;;14.59;75.77;99286.13;4954477;28;20260;-52
2022/05/27 04:04:17;;;;;;;6.80;2.33;;;;;;;14.65;75.54;99289.91;4954868;28;20205;-53
2022/05/27 04:06:48;;;;;;;11.63;3.17;;;;;;;14.68;75.53;99292.22;4954962;29;20291;-52
2022/05/27 04:09:15;;;;;;;7.53;2.53;;;;;;;14.69;75.44;99291.25;4954129;29;20742;-51
2022/05/27 04:11:43;;;;;;;5.67;2.37;;;;;;;14.71;75.47;99300.63;4954735;29;20218;-52
2022/05/27 04:14:10;;;;;;;3.83;2.13;;;;;;;14.71;76.00;99294.56;4954681;29;20203;-52
2022/05/27 04:16:38;;;;;;;6.07;2.57;;;;;;;14.78;74.82;99297.34;4941362;29;20300;-54
2022/05/27 04:19:06;;;;;;;5.10;2.50;;;;;;;14.78;75.09;99302.63;4971517;28;20223;-53
2022/05/27 04:21:34;;;;;;;3.70;1.97;;;;;;;14.80;75.05;99298.84;4956520;28;20650;-53
2022/05/27 04:24:02;;;;;;;6.17;2.43;;;;;;;14.83;75.30;99305.59;4973169;28;20287;-55
2022/05/27 04:26:29;;;;;;;5.37;2.53;;;;;;;14.87;74.80;99294.56;4969649;28;20204;-54
2022/05/27 04:28:56;;;;;;;6.17;2.40;;;;;;;14.86;75.19;99305.25;4954417;29;20215;-53
2022/05/27 04:31:24;;;;;;;3.63;2.70;;;;;;;14.87;74.55;99299.81;4937325;29;20306;-54
2022/05/27 04:33:51;;;;;;;5.20;2.50;;;;;;;14.88;74.04;99300.66;4937450;29;20208;-51
2022/05/27 04:36:18;;;;;;;6.83;2.53;;;;;;;14.93;75.05;99301.00;4954107;29;20689;-53
2022/05/27 04:38:45;;;;;;;7.27;2.30;;;;;;;14.93;74.64;99298.38;4954378;29;20214;-52
2022/05/27 04:41:14;;;;;;;3.73;2.93;;;;;;;14.91;74.93;99301.16;4954469;29;20810;-52
2022/05/27 04:43:41;;;;;;;3.87;2.73;;;;;;;14.96;74.26;99298.03;4954638;29;20649;-53
2022/05/27 04:46:07;;;;;;;6.63;2.70;;;;;;;14.94;74.66;99294.75;4954541;29;20213;-53
2022/05/27 04:48:35;;;;;;;4.27;2.40;;;;;;;14.95;74.83;99296.41;4967101;28;20614;-54
2022/05/27 04:51:02;;;;;;;5.27;3.03;;;;;;;14.97;74.94;99290.97;4973751;28;20199;-52
2022/05/27 04:53:29;;;;;;;6.23;3.10;;;;;;;15.00;75.04;99296.75;4956565;28;20205;-54
2022/05/27 04:55:56;;;;;;;7.77;2.80;;;;;;;14.89;74.56;99297.06;4973640;28;20186;-52
2022/05/27 04:58:25;;;;;;;5.30;3.00;;;;;;;14.98;74.82;99290.81;4969972;28;20301;-54
2022/05/27 05:00:52;;;;;;;4.07;2.57;;;;;;;15.03;74.60;99301.66;4954500;29;20195;-53
2022/05/27 05:03:19;;;;;;;5.27;2.20;;;;;;;15.03;74.92;99303.47;4954254;29;20191;-52
2022/05/27 05:05:46;;;;;;;7.10;2.60;;;;;;;15.06;74.38;99303.13;4954008;29;20205;-52
2022/05/27 05:08:26;;;;;;;5.87;2.70;;;;;;;15.01;74.67;99308.06;4954018;29;20219;-53
2022/05/27 05:10:53;;;;;;;3.43;2.07;;;;;;;15.07;75.25;99311.88;4949485;29;20233;-53
2022/05/27 05:13:20;;;;;;;5.53;2.53;;;;;;;15.07;74.99;99314.50;4968070;28;20314;-53
2022/05/27 05:15:48;;;;;;;3.90;2.50;;;;;;;15.09;74.52;99318.59;4973832;28;20210;-54
2022/05/27 05:18:15;;;;;;;4.37;2.60;;;;;;;15.10;74.71;99314.16;4962661;28;20238;-55
2022/05/27 05:20:43;;;;;;;5.73;3.03;;;;;;;15.12;75.05;99306.94;4962357;28;20680;-55
2022/05/27 05:23:10;;;;;;;5.60;2.97;;;;;;;15.14;74.71;99312.84;4957417;29;20261;-54
2022/05/27 05:25:37;;;;;;;4.07;2.63;;;;;;;15.17;74.73;99313.34;4956754;29;20214;-53
2022/05/27 05:28:05;;;;;;;6.27;2.90;;;;;;;15.18;74.17;99314.97;4956979;29;20256;-54
2022/05/27 05:30:31;;;;;;;4.63;2.60;;;;;;;15.19;74.79;99311.38;4957129;29;20292;-53
2022/05/27 05:32:59;;;;;;;4.93;2.97;;;;;;;15.12;74.62;99320.09;4957454;28;20195;-53
2022/05/27 05:35:26;;;;;;;7.03;2.93;;;;;;;15.11;74.91;99313.19;4959212;28;20772;-53
2022/05/27 05:37:54;;;;;;;5.80;2.63;;;;;;;15.13;75.60;99319.91;4975972;28;20216;-52
2022/05/27 05:40:21;;;;;;;4.80;2.80;;;;;;;15.12;74.91;99314.81;4976825;28;20587;-52
2022/05/27 05:42:49;;;;;;;5.50;2.83;;;;;;;15.19;75.49;99305.31;4976467;28;20192;-53
2022/05/27 05:45:18;;;;;;;6.63;2.87;;;;;;;15.20;75.23;99310.38;4976297;28;20206;-52
2022/05/27 05:47:46;;;;;;;4.80;2.70;;;;;;;15.26;74.99;99310.72;4951866;29;20943;-51
2022/05/27 05:50:16;;;;;;;6.53;2.80;;;;;;;15.26;74.76;99313.34;4975259;28;20268;-51
2022/05/27 05:52:44;;;;;;;4.07;2.57;;;;;;;15.28;74.96;99317.47;4975902;28;20196;-51
2022/05/27 05:55:13;;;;;;;5.10;2.80;;;;;;;15.30;75.03;99314.66;4958409;28;20234;-50
2022/05/27 05:57:44;;;;;;;7.37;2.97;;;;;;;15.40;74.18;99309.22;4974980;28;20210;-47
2022/05/27 06:00:13;;;;;;;7.03;3.00;;;;;;;15.41;73.83;99319.59;4963064;28;20223;-50
2022/05/27 06:02:41;;;;;;;5.23;2.90;;;;;;;15.40;73.98;99317.94;4960761;28;20789;-49
2022/05/27 06:05:09;;;;;;;4.50;3.07;;;;;;;15.48;74.52;99314.47;4973675;28;20213;-50
2022/05/27 06:07:37;;;;;;;5.33;2.97;;;;;;;15.47;73.69;99316.28;4975625;28;20210;-49
2022/05/27 06:10:06;;;;;;;4.37;3.00;;;;;;;15.48;73.29;99315.31;4966629;28;20249;-50
2022/05/27 06:12:34;;;;;;;6.63;3.33;;;;;;;15.49;72.94;99322.22;4975821;28;20207;-52
2022/05/27 06:15:01;;;;;;;4.77;2.80;;;;;;;15.50;72.80;99318.59;4975777;28;20586;-48
2022/05/27 06:17:28;;;;;;;8.60;2.67;;;;;;;15.53;73.01;99321.88;4968553;28;20225;-49
2022/05/27 06:19:54;;;;;;;5.00;2.90;;;;;;;15.42;74.04;99315.97;4966463;28;20559;-50
2022/05/27 06:22:21;;;;;;;5.40;2.77;;;;;;;15.53;73.01;99308.72;4975808;28;20539;-48
2022/05/27 06:24:49;;;;;;;5.85;2.80;;;;;;;15.68;72.73;99317.59;4974377;28;20818;-49
2022/05/27 06:27:17;;;;;;;5.87;2.47;;;;;;;15.68;72.71;99316.75;4974349;28;20287;-49
2022/05/27 06:35:14;;;;;;;5.20;2.50;;;;;;;15.62;72.79;99334.84;4974840;28;20646;-49
2022/05/27 06:37:41;;;;;;;5.70;2.73;;;;;;;15.59;72.62;99329.13;4974468;28;20212;-49
2022/05/27 06:40:10;;;;;;;3.53;2.30;;;;;;;15.63;73.11;99325.16;4975025;28;20650;-49
2022/05/27 06:42:38;;;;;;;3.87;2.87;;;;;;;15.67;72.68;99326.47;4975685;28;20198;-50
2022/05/27 06:45:08;;;;;;;9.00;2.57;;;;;;;15.76;74.55;99340.44;4974813;28;20208;-49
2022/05/27 06:47:36;;;;;;;9.70;2.87;;;;;;;16.20;73.78;99340.03;4974720;28;20210;-52
2022/05/27 06:50:04;;;;;;;6.77;2.47;;;;;;;16.03;71.46;99336.63;4975097;28;20272;-54
2022/05/27 06:52:31;;;;;;;8.47;3.27;;;;;;;15.92;71.51;99347.50;4975138;28;20786;-49
2022/05/27 06:54:59;;;;;;;3.13;2.80;;;;;;;15.69;73.22;99352.63;4976806;28;20808;-52
2022/05/27 06:57:27;;;;;;;4.47;2.93;;;;;;;15.63;73.12;99341.75;4967397;28;20269;-51
2022/05/27 06:59:54;;;;;;;6.00;2.70;;;;;;;15.61;73.76;99349.00;4967291;28;20194;-50
2022/05/27 07:02:22;;;;;;;4.67;2.70;;;;;;;15.50;72.98;99349.34;4964388;28;20662;-54
2022/05/27 07:04:49;;;;;;;3.53;2.60;;;;;;;15.53;72.93;99348.19;4955206;28;20281;-49
2022/05/27 07:07:16;;;;;;;7.90;2.83;;;;;;;15.61;73.54;99350.81;4948207;28;20198;-49
2022/05/27 07:09:43;;;;;;;4.60;2.33;;;;;;;15.59;73.62;99347.53;4967915;28;20198;-50
2022/05/27 07:12:30;;;;;;;4.67;2.90;;;;;;;15.68;73.43;99343.91;4968114;28;20594;-50
2022/05/27 07:14:57;;;;;;;5.30;2.60;;;;;;;15.63;72.88;99344.41;4975456;28;20194;-51
2022/05/27 07:17:25;;;;;;;5.67;3.00;;;;;;;15.58;73.03;99346.69;4975233;28;20224;-51
2022/05/27 07:19:51;;;;;;;6.43;2.70;;;;;;;15.72;72.88;99341.75;4959524;28;20198;-51
2022/05/27 07:22:19;;;;;;;3.37;2.37;;;;;;;15.78;71.72;99336.66;4975327;28;20196;-53
2022/05/27 07:24:46;;;;;;;9.87;2.80;;;;;;;15.89;72.62;99345.25;4975462;28;20229;-50
2022/05/27 07:27:13;;;;;;;6.13;2.67;;;;;;;15.92;71.53;99329.91;4974025;28;20236;-49
2022/05/27 07:29:41;;;;;;;6.40;2.57;;;;;;;15.96;71.88;99325.13;4975141;28;20225;-50
2022/05/27 07:32:08;;;;;;;6.40;3.10;;;;;;;15.93;72.25;99328.09;4975171;28;20214;-50
2022/05/27 07:34:35;;;;;;;6.63;2.60;;;;;;;16.09;72.51;99333.31;4969425;28;20199;-50
2022/05/27 07:37:02;;;;;;;8.07;2.27;;;;;;;16.12;71.76;99332.16;4970860;28;20193;-51
2022/05/27 07:39:29;;;;;;;5.30;2.53;;;;;;;16.41;72.74;99332.56;4973507;28;20190;-49
2022/05/27 07:41:56;;;;;;;4.70;2.80;;;;;;;16.41;69.90;99328.13;4973759;28;20206;-50
2022/05/27 07:44:23;;;;;;;4.10;2.60;;;;;;;16.44;70.13;99326.94;4973870;28;20188;-50
2022/05/27 07:46:53;;;;;;;5.43;2.77;;;;;;;16.47;68.94;99335.31;4967659;28;20218;-50
2022/05/27 07:49:20;;;;;;;5.43;2.50;;;;;;;16.43;68.40;99341.09;4967711;28;20230;-51
2022/05/27 07:51:47;;;;;;;5.17;2.67;;;;;;;16.19;70.63;99337.56;4972333;28;20194;-50
2022/05/27 07:54:14;;;;;;;6.03;2.40;;;;;;;16.24;69.64;99337.88;4955893;28;20210;-52
2022/05/27 07:56:42;;;;;;;5.57;2.43;;;;;;;16.32;68.94;99329.13;4973124;28;20555;-50
2022/05/27 07:59:09;;;;;;;5.13;2.50;;;;;;;16.30;68.95;99328.50;4972039;28;20222;-50
2022/05/27 08:01:36;;;;;;;6.73;2.77;;;;;;;16.37;70.95;99337.34;4972979;28;20192;-48
2022/05/27 08:04:06;;;;;;;5.90;2.40;;;;;;;16.62;69.63;99329.31;4972559;28;20204;-48
2022/05/27 08:06:33;;;;;;;11.57;4.23;;;;;;;16.82;69.55;99327.06;4973640;28;20663;-47
2022/05/27 08:09:01;;;;;;;7.60;2.90;;;;;;;17.07;69.39;99334.84;4972830;28;20219;-49
2022/05/27 08:11:28;;;;;;;4.70;2.60;;;;;;;17.08;68.90;99334.69;4955933;28;20227;-52
2022/05/27 08:13:56;;;;;;;8.10;2.43;;;;;;;17.31;67.97;99335.66;4956241;28;20196;-50
2022/05/27 08:16:24;;;;;;;11.03;3.00;;;;;;;17.40;66.98;99338.06;4956477;28;20195;-50
2022/05/27 08:18:51;;;;;;;4.43;2.40;;;;;;;17.58;66.21;99336.91;4956539;28;20640;-51
2022/05/27 08:21:19;;;;;;;2.80;2.40;;;;;;;17.61;65.82;99346.28;4967565;28;20230;-50
2022/05/27 08:23:46;;;;;;;4.60;3.07;;;;;;;17.67;64.39;99349.03;4973711;28;20221;-50
2022/05/27 08:26:15;;;;;;;4.65;2.40;;;;;;;17.85;64.36;99343.44;4971227;28;20954;-51
2022/05/27 08:28:42;;;;;;;4.53;2.40;;;;;;;17.90;63.63;99353.44;4973633;28;20683;-51
2022/05/27 08:31:10;;;;;;;8.53;2.40;;;;;;;17.88;62.46;99355.44;4974213;28;20192;-51
2022/05/27 08:39:12;;;;;;;6.33;2.57;;;;;;;18.39;61.16;99352.09;4973906;28;20288;-52
2022/05/27 08:41:54;;;;;;;3.07;2.07;;;;;;;17.77;61.96;99351.44;4959669;28;20764;-53
2022/05/27 08:44:36;;;;;;;5.53;2.30;;;;;;;17.65;63.27;99351.03;4983080;28;20592;-51
2022/05/27 08:47:13;;;;;;;4.23;2.33;;;;;;;17.80;62.46;99361.63;4975040;28;20275;-53
2022/05/27 08:49:45;;;;;;;5.70;2.60;;;;;;;18.21;61.75;99362.22;4961619;28;20207;-51
2022/05/27 08:52:21;;;;;;;4.77;2.80;;;;;;;18.22;61.41;99351.47;4978426;28;20226;-50
2022/05/27 08:54:53;;;;;;;6.67;3.10;;;;;;;18.20;62.15;99364.06;4978141;28;20180;-53
2022/05/27 09:00:14;;;;;;;4.37;2.30;;;;;;;18.93;58.95;99376.53;4977765;28;20187;-53
2022/05/27 09:02:47;;;;;;;3.13;1.83;;;;;;;18.68;57.01;99353.06;4959939;28;20577;-54
2022/05/27 09:05:19;;;;;;;3.83;1.63;;;;;;;18.71;57.80;99360.63;4977919;28;20733;-51
2022/05/27 09:07:54;;;;;;;4.20;1.80;;;;;;;18.61;57.35;99352.16;4977948;28;20780;-53
2022/05/27 09:10:24;;;;;;;4.97;1.70;;;;;;;18.97;56.99;99356.66;4978587;28;20325;-51
2022/05/27 09:13:06;;;;;;;5.63;1.93;;;;;;;19.01;56.99;99357.94;4978190;28;20238;-52
2022/05/27 09:15:40;;;;;;;3.83;1.90;;;;;;;19.27;57.04;99351.22;4972155;28;20204;-53
2022/05/27 09:18:20;;;;;;;4.20;1.77;;;;;;;19.71;55.71;99349.34;4977642;28;20224;-51
2022/05/27 09:20:58;;;;;;;3.93;1.70;;;;;;;19.63;55.78;99346.84;4977795;28;20190;-51
2022/05/27 09:23:50;;;;;;;3.90;1.73;;;;;;;19.99;54.81;99350.41;4970459;28;20191;-53
2022/05/27 09:26:25;;;;;;;4.00;1.50;;;;;;;19.57;53.87;99348.44;4957523;28;20221;-52
2022/05/27 09:29:00;;;;;;;5.67;1.90;;;;;;;19.57;53.99;99345.00;4975855;28;20207;-52
2022/05/27 09:31:35;;;;;;;1.83;1.20;;;;;;;19.27;54.72;99356.53;4976918;28;20242;-54
2022/05/27 09:34:02;;;;;;;2.70;1.20;;;;;;;19.59;52.75;99362.31;4959938;28;20191;-51
2022/05/27 09:36:36;;;;;;;2.60;1.13;;;;;;;20.01;51.69;99358.97;4976946;28;20188;-51
2022/05/27 09:39:10;;;;;;;1.60;1.20;;;;;;;19.91;52.14;99361.94;4976659;28;20204;-51
2022/05/27 09:41:45;;;;;;;2.47;1.20;;;;;;;19.99;52.13;99350.41;4977262;28;20234;-51
2022/05/27 09:44:22;;;;;;;4.17;1.10;;;;;;;20.18;50.25;99362.13;4977090;28;20172;-51
2022/05/27 09:46:50;;;;;;;3.53;1.30;;;;;;;20.24;51.74;99353.38;4977101;28;20192;-51
2022/05/27 09:49:18;;;;;;;2.07;1.30;;;;;;;20.14;50.99;99347.63;4976775;28;20205;-53
2022/05/27 09:51:45;;;;;;;2.30;1.63;;;;;;;20.11;51.22;99348.84;4959952;28;20228;-54
2022/05/27 09:54:27;;;;;;;3.00;1.50;;;;;;;20.23;50.90;99350.91;4977623;28;20190;-54
2022/05/27 09:57:02;;;;;;;1.97;1.20;;;;;;;20.50;49.01;99359.81;4976977;28;20189;-54
2022/05/27 09:59:36;;;;;;;2.53;1.50;;;;;;;21.17;48.57;99341.44;4975885;28;20201;-53
2022/05/27 10:02:17;;;;;;;1.87;1.10;;;;;;;20.99;47.30;99336.72;4976422;28;20178;-51
2022/05/27 10:04:52;;;;;;;2.57;1.20;;;;;;;20.20;49.78;99337.03;4976082;28;20203;-52
2022/05/27 10:07:35;;;;;;;4.10;1.33;;;;;;;19.83;50.81;99330.28;4958887;28;20213;-53
2022/05/27 10:10:20;;;;;;;1.10;1.00;;;;;;;20.40;50.50;99331.00;4976062;28;20213;-52
2022/05/27 10:12:49;;;;;;;1.97;1.30;;;;;;;20.29;50.36;99328.91;4976057;28;20280;-51
2022/05/27 10:15:32;;;;;;;3.00;1.40;;;;;;;19.98;50.20;99319.63;4958634;28;20281;-54
2022/05/27 10:18:18;;;;;;;2.47;1.10;;;;;;;20.45;48.36;99328.59;4958196;28;20227;-52
2022/05/27 10:20:51;;;;;;;1.97;1.13;;;;;;;20.93;47.72;99327.72;4975752;28;20224;-52
2022/05/27 10:23:24;;;;;;;1.80;1.00;;;;;;;20.98;47.74;99329.78;4975814;28;20188;-52
2022/05/27 10:25:53;;;;;;;2.80;1.07;;;;;;;20.89;46.61;99328.34;4958322;28;20196;-54
2022/05/27 10:28:29;;;;;;;3.27;1.20;;;;;;;20.25;48.18;99331.16;4975388;28;20208;-52
2022/05/27 10:31:00;;;;;;;3.80;1.00;;;;;;;19.87;48.59;99319.09;4975800;28;20688;-51
2022/05/27 10:33:39;;;;;;;1.60;1.20;;;;;;;19.48;50.20;99333.69;4975534;28;20224;-52
2022/05/27 10:36:38;;;;;;;3.40;1.33;;;;;;;19.38;51.47;99325.25;4975808;28;20274;-52
2022/05/27 10:39:08;;;;;;;1.50;1.27;;;;;;;18.97;52.51;99326.75;4963250;28;20240;-54
2022/05/27 10:41:53;;;;;;;3.90;1.27;;;;;;;19.21;52.27;99327.38;4957954;28;20200;-52
2022/05/27 10:44:35;;;;;;;1.73;1.37;;;;;;;19.21;51.92;99322.88;4975283;28;20194;-52
2022/05/27 10:47:05;;;;;;;1.13;1.00;;;;;;;19.96;51.10;99316.34;4957558;28;20688;-51
2022/05/27 10:49:55;;;;;;;3.23;1.60;;;;;;;19.60;50.00;99326.88;4975629;28;20200;-54
2022/05/27 10:52:48;;;;;;;2.63;1.30;;;;;;;19.69;49.83;99324.88;4975008;28;20202;-52
2022/05/27 10:55:22;;;;;;;2.00;1.50;;;;;;;19.73;48.69;99326.13;4975265;28;20193;-54
2022/05/27 11:04:31;;;;;;;3.03;1.33;;;;;;;19.75;49.04;99326.75;4974733;28;20183;-52
2022/05/27 11:07:11;;;;;;;2.97;1.37;;;;;;;19.60;49.71;99326.06;4974878;28;20255;-53
2022/05/27 11:09:52;;;;;;;2.70;1.30;;;;;;;19.84;49.49;99316.00;4974592;28;20195;-52
2022/05/27 11:12:27;;;;;;;1.63;1.30;;;;;;;20.23;48.61;99311.97;4974857;28;20299;-52
2022/05/27 11:15:13;;;;;;;2.77;1.70;;;;;;;19.46;51.75;99312.72;4974946;28;20622;-53
2022/05/27 11:17:57;;;;;;;3.13;1.80;;;;;;;19.46;52.02;99317.19;4974382;28;20221;-52
2022/05/27 11:21:06;;;;;;;5.07;1.70;;;;;;;19.75;50.65;99316.16;4974642;28;20586;-52
2022/05/27 11:23:57;;;;;;;3.73;2.00;;;;;;;19.35;52.88;99302.66;4974712;28;20203;-52
2022/05/27 11:26:32;;;;;;;2.00;1.63;;;;;;;19.80;51.83;99312.13;4974776;28;20603;-51
2022/05/27 11:29:32;;;;;;;5.67;1.80;;;;;;;19.66;51.41;99304.09;4974687;28;20217;-52
2022/05/27 11:32:10;;;;;;;2.90;1.90;;;;;;;19.74;50.88;99314.53;4972020;28;20228;-52
2022/05/27 11:34:51;;;;;;;3.43;1.90;;;;;;;19.66;50.99;99303.28;4974906;28;20283;-53
2022/05/27 11:37:29;;;;;;;2.17;1.63;;;;;;;19.51;52.01;99306.84;4956950;28;20225;-52
2022/05/27 11:40:16;;;;;;;3.37;1.80;;;;;;;19.74;52.26;99303.13;4974582;28;20215;-52
2022/05/27 11:43:28;;;;;;;2.47;2.00;;;;;;;19.81;51.50;99300.50;4974764;28;20609;-54
2022/05/27 11:46:08;;;;;;;4.77;1.90;;;;;;;20.04;50.65;99294.97;4896111;29;20219;-52
2022/05/27 11:48:51;;;;;;;4.33;1.60;;;;;;;20.05;50.68;99299.28;4963796;28;20223;-53
2022/05/27 11:51:40;;;;;;;4.33;1.50;;;;;;;19.86;52.14;99296.28;4974401;28;20188;-54
2022/05/27 11:54:34;;;;;;;4.30;1.50;;;;;;;20.11;50.84;99295.84;4974295;28;20208;-52
2022/05/27 11:57:15;;;;;;;4.50;1.50;;;;;;;20.01;51.29;99298.03;4973935;28;20188;-54
2022/05/27 11:59:47;;;;;;;2.53;1.20;;;;;;;20.54;50.22;99286.81;4957191;28;20202;-51
2022/05/27 12:02:26;;;;;;;2.47;1.40;;;;;;;20.48;49.64;99290.25;4973979;28;20212;-52
2022/05/27 12:05:00;;;;;;;2.73;1.43;;;;;;;20.45;50.32;99280.84;4974288;28;20193;-52
2022/05/27 12:07:33;;;;;;;2.83;1.73;;;;;;;19.78;51.88;99291.13;4973790;28;20283;-52
2022/05/27 12:10:12;;;;;;;2.67;1.53;;;;;;;19.44;52.05;99276.84;4956463;28;20578;-53
2022/05/27 12:12:45;;;;;;;4.40;1.63;;;;;;;19.83;52.77;99277.28;4973713;28;20213;-52
2022/05/27 12:15:23;;;;;;;1.70;1.30;;;;;;;19.98;52.97;99278.03;4956625;28;20197;-52
2022/05/27 12:17:52;;;;;;;2.60;1.40;;;;;;;20.09;50.41;99274.00;4973769;28;20216;-52
2022/05/27 12:20:24;;;;;;;6.47;1.40;;;;;;;20.13;51.68;99277.91;4973707;28;20267;-52
2022/05/27 12:22:54;;;;;;;4.63;1.60;;;;;;;20.07;50.18;99284.00;4973306;28;20255;-52
2022/05/27 12:25:26;;;;;;;2.78;1.40;;;;;;;20.07;49.53;99278.69;4973035;28;20925;-53